Time,TemperatureF,DewpointF,PressureIn,WindDirection,WindDirectionDegrees,WindSpeedMPH,WindSpeedGustMPH,Humidity,HourlyPrecipIn,Conditions,Clouds,dailyrainin,SoftwareType,DateUTC
2013-03-25 00:05:00,23.1,9.0,30.30,NW,304,0.0,0.0,54,0.00,,,0.00,weatherlink.com 1.10,2013-03-25 06:05:00,
2013-03-25 00:20:00,23.2,9.0,30.31,NW,304,0.0,0.0,54,0.00,,,0.00,weatherlink.com 1.10,2013-03-25 06:20:00,
2013-03-25 00:35:00,23.4,8.0,30.31,NW,304,0.0,0.0,53,0.00,,,0.00,weatherlink.com 1.10,2013-03-25 06:35:00,
2013-03-25 00:50:00,22.4,8.0,30.31,WNW,286,2.0,4.0,54,0.00,,,0.00,weatherlink.com 1.10,2013-03-25 06:50:00,
2013-03-25 01:05:00,22.7,8.0,30.30,NNW,331,0.0,5.0,54,0.00,,,0.00,weatherlink.com 1.10,2013-03-25 07:05:00,
2013-03-25 01:20:00,23.9,8.0,30.31,NNW,327,2.0,4.0,52,0.00,,,0.00,weatherlink.com 1.10,2013-03-25 07:20:00,
2013-03-25 01:35:00,23.9,8.0,30.30,NW,321,0.0,0.0,52,0.00,,,0.00,weatherlink.com 1.10,2013-03-25 07:35:00,
2013-03-25 01:50:00,24.0,9.0,30.30,NW,321,0.0,0.0,52,0.00,,,0.00,weatherlink.com 1.10,2013-03-25 07:50:00,
2013-03-25 02:05:00,23.8,9.0,30.30,West,261,0.0,1.0,54,0.00,,,0.00,weatherlink.com 1.10,2013-03-25 08:05:00,
2013-03-25 02:20:00,23.8,8.0,30.29,West,261,0.0,0.0,52,0.00,,,0.00,weatherlink.com 1.10,2013-03-25 08:20:00,
2013-03-25 02:35:00,23.4,8.0,30.29,WSW,253,0.0,0.0,53,0.00,,,0.00,weatherlink.com 1.10,2013-03-25 08:35:00,
2013-03-25 02:51:00,23.3,9.0,30.29,WSW,253,0.0,0.0,54,0.00,,,0.00,weatherlink.com 1.10,2013-03-25 08:51:00,
2013-03-25 03:06:00,22.8,9.0,30.28,WSW,254,0.0,1.0,55,0.00,,,0.00,weatherlink.com 1.10,2013-03-25 09:06:00,
2013-03-25 03:21:00,23.6,9.0,30.28,WSW,244,1.0,6.0,54,0.00,,,0.00,weatherlink.com 1.10,2013-03-25 09:21:00,
2013-03-25 03:36:00,25.2,9.0,30.28,WSW,255,3.0,10.0,51,0.00,,,0.00,weatherlink.com 1.10,2013-03-25 09:36:00,
2013-03-25 04:06:00,24.7,9.0,30.27,WSW,238,5.0,8.0,51,0.00,,,0.00,weatherlink.com 1.10,2013-03-25 10:06:00,
2013-03-25 04:21:00,25.1,9.0,30.27,WSW,251,3.0,7.0,50,0.00,,,0.00,weatherlink.com 1.10,2013-03-25 10:21:00,
2013-03-25 05:06:00,24.4,8.0,30.27,West,273,3.0,5.0,50,0.00,,,0.00,weatherlink.com 1.10,2013-03-25 11:06:00,
2013-03-25 05:36:00,25.0,8.0,30.27,West,260,0.0,11.0,49,0.00,,,0.00,weatherlink.com 1.10,2013-03-25 11:36:00,
2013-03-25 05:51:00,24.5,8.0,30.26,SW,215,1.0,10.0,50,0.00,,,0.00,weatherlink.com 1.10,2013-03-25 11:51:00,
2013-03-25 06:06:00,24.1,8.0,30.26,West,267,6.0,7.0,50,0.00,,,0.00,weatherlink.com 1.10,2013-03-25 12:06:00,
2013-03-25 06:21:00,24.4,8.0,30.26,WSW,246,1.0,8.0,50,0.00,,,0.00,weatherlink.com 1.10,2013-03-25 12:21:00,
2013-03-25 06:36:00,24.7,8.0,30.26,SW,232,5.0,9.0,50,0.00,,,0.00,weatherlink.com 1.10,2013-03-25 12:36:00,
2013-03-25 06:51:00,24.2,8.0,30.26,WSW,240,4.0,9.0,51,0.00,,,0.00,weatherlink.com 1.10,2013-03-25 12:51:00,
2013-03-25 07:06:00,24.4,9.0,30.26,WSW,254,1.0,7.0,51,0.00,,,0.00,weatherlink.com 1.10,2013-03-25 13:06:00,
2013-03-25 07:21:00,24.3,9.0,30.26,SSE,160,3.0,7.0,52,0.00,,,0.00,weatherlink.com 1.10,2013-03-25 13:21:00,
2013-03-25 07:36:00,24.6,9.0,30.26,South,177,4.0,7.0,51,0.00,,,0.00,weatherlink.com 1.10,2013-03-25 13:36:00,
2013-03-25 07:51:00,26.0,9.0,30.26,West,263,0.0,7.0,49,0.00,,,0.00,weatherlink.com 1.10,2013-03-25 13:51:00,
2013-03-25 08:06:00,26.7,9.0,30.26,SSE,165,4.0,10.0,47,0.00,,,0.00,weatherlink.com 1.10,2013-03-25 14:06:00,
2013-03-25 08:21:00,26.9,9.0,30.25,SSE,164,8.0,12.0,46,0.00,,,0.00,weatherlink.com 1.10,2013-03-25 14:21:00,
2013-03-25 08:36:00,29.0,9.0,30.25,SE,144,7.0,12.0,44,0.00,,,0.00,weatherlink.com 1.10,2013-03-25 14:36:00,
2013-03-25 08:51:00,30.0,9.0,30.24,SE,144,10.0,14.0,42,0.00,,,0.00,weatherlink.com 1.10,2013-03-25 14:51:00,
2013-03-25 09:06:00,30.6,9.0,30.24,SSE,153,5.0,16.0,41,0.00,,,0.00,weatherlink.com 1.10,2013-03-25 15:06:00,
2013-03-25 09:21:00,31.8,9.0,30.23,SSE,163,10.0,16.0,39,0.00,,,0.00,weatherlink.com 1.10,2013-03-25 15:21:00,
2013-03-25 09:36:00,32.4,10.0,30.22,SE,128,12.0,18.0,39,0.00,,,0.00,weatherlink.com 1.10,2013-03-25 15:36:00,
2013-03-25 09:51:00,33.3,9.0,30.21,SSE,152,8.0,20.0,37,0.00,,,0.00,weatherlink.com 1.10,2013-03-25 15:51:00,
2013-03-25 10:06:00,34.1,8.0,30.21,SSE,154,16.0,22.0,34,0.00,,,0.00,weatherlink.com 1.10,2013-03-25 16:06:00,
2013-03-25 10:22:00,34.8,8.0,30.21,SSE,163,9.0,23.0,32,0.00,,,0.00,weatherlink.com 1.10,2013-03-25 16:22:00,
2013-03-25 10:36:00,35.2,9.0,30.20,SSE,150,11.0,26.0,34,0.00,,,0.00,weatherlink.com 1.10,2013-03-25 16:36:00,
2013-03-25 10:52:00,36.1,8.0,30.19,SE,124,10.0,21.0,31,0.00,,,0.00,weatherlink.com 1.10,2013-03-25 16:52:00,
2013-03-25 11:07:00,37.3,10.0,30.19,SSE,159,11.0,22.0,32,0.00,,,0.00,weatherlink.com 1.10,2013-03-25 17:07:00,
2013-03-25 11:22:00,38.1,9.0,30.18,ESE,117,10.0,18.0,30,0.00,,,0.00,weatherlink.com 1.10,2013-03-25 17:22:00,
2013-03-25 11:37:00,38.6,9.0,30.18,SE,133,11.0,21.0,29,0.00,,,0.00,weatherlink.com 1.10,2013-03-25 17:37:00,
2013-03-25 12:07:00,40.3,10.0,30.15,SSE,152,19.0,22.0,29,0.00,,,0.00,weatherlink.com 1.10,2013-03-25 18:07:00,
2013-03-25 12:22:00,40.6,11.0,30.15,SSE,163,10.0,23.0,30,0.00,,,0.00,weatherlink.com 1.10,2013-03-25 18:22:00,
2013-03-25 12:37:00,41.4,10.0,30.14,SE,136,13.0,27.0,28,0.00,,,0.00,weatherlink.com 1.10,2013-03-25 18:37:00,
2013-03-25 12:52:00,42.7,11.0,30.14,SSE,159,8.0,22.0,27,0.00,,,0.00,weatherlink.com 1.10,2013-03-25 18:52:00,
2013-03-25 13:07:00,43.2,12.0,30.13,SSE,154,9.0,20.0,28,0.00,,,0.00,weatherlink.com 1.10,2013-03-25 19:07:00,
2013-03-25 13:22:00,44.2,12.0,30.12,SSE,153,11.0,19.0,27,0.00,,,0.00,weatherlink.com 1.10,2013-03-25 19:22:00,
2013-03-25 13:52:00,45.6,12.0,30.11,South,173,8.0,20.0,25,0.00,,,0.00,weatherlink.com 1.10,2013-03-25 19:52:00,
2013-03-25 14:07:00,46.4,12.0,30.09,SE,131,14.0,21.0,25,0.00,,,0.00,weatherlink.com 1.10,2013-03-25 20:07:00,
2013-03-25 14:22:00,47.0,13.0,30.09,SE,138,8.0,19.0,25,0.00,,,0.00,weatherlink.com 1.10,2013-03-25 20:22:00,
2013-03-25 14:37:00,47.5,12.0,30.09,ESE,115,7.0,17.0,24,0.00,,,0.00,weatherlink.com 1.10,2013-03-25 20:37:00,
2013-03-25 14:52:00,47.3,11.0,30.08,SSE,155,14.0,23.0,23,0.00,,,0.00,weatherlink.com 1.10,2013-03-25 20:52:00,
2013-03-25 15:07:00,47.3,11.0,30.09,WSW,254,3.0,23.0,23,0.00,,,0.00,weatherlink.com 1.10,2013-03-25 21:07:00,
2013-03-25 15:22:00,48.9,12.0,30.09,SE,144,8.0,10.0,23,0.00,,,0.00,weatherlink.com 1.10,2013-03-25 21:22:00,
2013-03-25 15:37:00,49.7,9.0,30.08,SW,232,2.0,12.0,19,0.00,,,0.00,weatherlink.com 1.10,2013-03-25 21:37:00,
2013-03-25 15:52:00,50.2,7.0,30.08,West,273,8.0,15.0,17,0.00,,,0.00,weatherlink.com 1.10,2013-03-25 21:52:00,
2013-03-25 16:07:00,50.1,8.0,30.07,WSW,245,5.0,9.0,18,0.00,,,0.00,weatherlink.com 1.10,2013-03-25 22:07:00,
2013-03-25 16:22:00,50.3,4.0,30.07,SSE,153,1.0,13.0,15,0.00,,,0.00,weatherlink.com 1.10,2013-03-25 22:22:00,
2013-03-25 16:37:00,50.4,6.0,30.07,WNW,289,9.0,12.0,16,0.00,,,0.00,weatherlink.com 1.10,2013-03-25 22:37:00,
2013-03-25 16:52:00,50.0,5.0,30.06,WSW,238,0.0,12.0,16,0.00,,,0.00,weatherlink.com 1.10,2013-03-25 22:52:00,
2013-03-25 17:07:00,49.9,6.0,30.06,WSW,251,3.0,13.0,17,0.00,,,0.00,weatherlink.com 1.10,2013-03-25 23:07:00,
2013-03-25 17:22:00,50.6,8.0,30.06,West,271,4.0,8.0,18,0.00,,,0.00,weatherlink.com 1.10,2013-03-25 23:22:00,
2013-03-25 17:38:00,49.9,6.0,30.05,NW,304,5.0,9.0,17,0.00,,,0.00,weatherlink.com 1.10,2013-03-25 23:38:00,
2013-03-25 17:53:00,49.5,9.0,30.06,WSW,246,4.0,11.0,19,0.00,,,0.00,weatherlink.com 1.10,2013-03-25 23:53:00,
2013-03-25 18:08:00,49.4,10.0,30.05,SW,228,1.0,8.0,20,0.00,,,0.00,weatherlink.com 1.10,2013-03-26 00:08:00,
2013-03-25 18:23:00,49.1,9.0,30.05,WSW,250,1.0,7.0,20,0.00,,,0.00,weatherlink.com 1.10,2013-03-26 00:23:00,
2013-03-25 18:38:00,48.0,10.0,30.04,WSW,246,5.0,9.0,21,0.00,,,0.00,weatherlink.com 1.10,2013-03-26 00:38:00,
2013-03-25 18:53:00,47.3,10.0,30.04,West,271,4.0,8.0,22,0.00,,,0.00,weatherlink.com 1.10,2013-03-26 00:53:00,
2013-03-25 19:08:00,46.6,9.0,30.04,WSW,254,2.0,6.0,22,0.00,,,0.00,weatherlink.com 1.10,2013-03-26 01:08:00,
2013-03-25 19:23:00,45.5,10.0,30.04,WSW,251,0.0,2.0,23,0.00,,,0.00,weatherlink.com 1.10,2013-03-26 01:23:00,
2013-03-25 19:38:00,42.8,9.0,30.04,West,260,0.0,5.0,25,0.00,,,0.00,weatherlink.com 1.10,2013-03-26 01:38:00,
2013-03-25 19:53:00,40.6,9.0,30.03,West,260,0.0,1.0,27,0.00,,,0.00,weatherlink.com 1.10,2013-03-26 01:53:00,
2013-03-25 20:08:00,39.3,9.0,30.03,West,261,0.0,1.0,29,0.00,,,0.00,weatherlink.com 1.10,2013-03-26 02:08:00,
2013-03-25 20:23:00,39.6,10.0,30.03,West,261,0.0,0.0,29,0.00,,,0.00,weatherlink.com 1.10,2013-03-26 02:23:00,
2013-03-25 20:38:00,37.8,10.0,30.03,WSW,239,0.0,0.0,31,0.00,,,0.00,weatherlink.com 1.10,2013-03-26 02:38:00,
2013-03-25 20:53:00,37.6,10.0,30.04,West,274,0.0,4.0,32,0.00,,,0.00,weatherlink.com 1.10,2013-03-26 02:53:00,
2013-03-25 21:08:00,36.0,11.0,30.04,SW,234,0.0,0.0,35,0.00,,,0.00,weatherlink.com 1.10,2013-03-26 03:08:00,
2013-03-25 21:23:00,36.3,11.0,30.04,SW,214,0.0,1.0,35,0.00,,,0.00,weatherlink.com 1.10,2013-03-26 03:23:00,
2013-03-25 21:38:00,34.4,12.0,30.04,SW,235,0.0,2.0,39,0.00,,,0.00,weatherlink.com 1.10,2013-03-26 03:38:00,
2013-03-25 21:53:00,32.2,11.0,30.04,West,276,0.0,2.0,41,0.00,,,0.00,weatherlink.com 1.10,2013-03-26 03:53:00,
2013-03-25 22:08:00,32.1,11.0,30.04,WSW,238,0.0,1.0,41,0.00,,,0.00,weatherlink.com 1.10,2013-03-26 04:08:00,
2013-03-25 22:23:00,32.0,12.0,30.04,WSW,252,0.0,1.0,44,0.00,,,0.00,weatherlink.com 1.10,2013-03-26 04:23:00,
2013-03-25 22:38:00,31.5,13.0,30.04,WNW,292,0.0,4.0,47,0.00,,,0.00,weatherlink.com 1.10,2013-03-26 04:38:00,
2013-03-25 22:53:00,30.8,12.0,30.05,WNW,298,3.0,4.0,46,0.00,,,0.00,weatherlink.com 1.10,2013-03-26 04:53:00,
2013-03-25 23:08:00,30.5,13.0,30.05,WNW,289,0.0,3.0,48,0.00,,,0.00,weatherlink.com 1.10,2013-03-26 05:08:00,
2013-03-25 23:23:00,30.1,13.0,30.05,West,275,0.0,3.0,50,0.00,,,0.00,weatherlink.com 1.10,2013-03-26 05:23:00,
2013-03-25 23:38:00,30.2,13.0,30.05,WNW,298,0.0,3.0,49,0.00,,,0.00,weatherlink.com 1.10,2013-03-26 05:38:00,
2013-03-25 23:53:00,29.7,13.0,30.05,North,355,0.0,0.0,51,0.00,,,0.00,weatherlink.com 1.10,2013-03-26 05:53:00,